sensor_id;sensor_type;location;lat;lon;timestamp;temperature;humidity
42867;DHT22;39461;40.948;73.006;2022-09-12T00:00:36;18.30;99.90
42867;DHT22;39461;40.948;73.006;2022-09-12T00:03:11;18.50;99.90
42867;DHT22;39461;40.948;73.006;2022-09-12T00:05:47;18.30;99.90
42867;DHT22;39461;40.948;73.006;2022-09-12T00:08:19;18.30;99.90
42867;DHT22;39461;40.948;73.006;2022-09-12T00:10:54;18.20;99.90
42867;DHT22;39461;40.948;73.006;2022-09-12T00:13:27;18.10;99.90
42867;DHT22;39461;40.948;73.006;2022-09-12T00:16:00;18.30;99.90
42867;DHT22;39461;40.948;73.006;2022-09-12T00:18:33;18.20;99.90
42867;DHT22;39461;40.948;73.006;2022-09-12T00:21:06;18.30;99.90
42867;DHT22;39461;40.948;73.006;2022-09-12T00:23:39;18.30;99.90
42867;DHT22;39461;40.948;73.006;2022-09-12T00:26:07;18.30;99.90
42867;DHT22;39461;40.948;73.006;2022-09-12T00:28:40;18.40;99.90
42867;DHT22;39461;40.948;73.006;2022-09-12T00:31:18;18.40;99.90
42867;DHT22;39461;40.948;73.006;2022-09-12T00:33:56;18.40;99.90
42867;DHT22;39461;40.948;73.006;2022-09-12T00:36:31;18.50;99.90
42867;DHT22;39461;40.948;73.006;2022-09-12T00:39:05;18.50;99.90
42867;DHT22;39461;40.948;73.006;2022-09-12T00:41:39;18.50;99.90
42867;DHT22;39461;40.948;73.006;2022-09-12T00:46:56;18.50;99.90
42867;DHT22;39461;40.948;73.006;2022-09-12T00:49:42;18.50;99.90
42867;DHT22;39461;40.948;73.006;2022-09-12T00:52:24;18.50;99.90
42867;DHT22;39461;40.948;73.006;2022-09-12T00:55:20;18.50;99.90
42867;DHT22;39461;40.948;73.006;2022-09-12T01:00:26;18.40;99.90
42867;DHT22;39461;40.948;73.006;2022-09-12T01:03:08;18.40;99.90
42867;DHT22;39461;40.948;73.006;2022-09-12T01:06:10;18.50;99.90
42867;DHT22;39461;40.948;73.006;2022-09-12T01:08:46;18.40;99.90
42867;DHT22;39461;40.948;73.006;2022-09-12T01:11:23;18.40;99.90
42867;DHT22;39461;40.948;73.006;2022-09-12T01:13:58;18.40;99.90
42867;DHT22;39461;40.948;73.006;2022-09-12T01:16:37;18.50;99.90
42867;DHT22;39461;40.948;73.006;2022-09-12T01:30:52;18.50;99.90
42867;DHT22;39461;40.948;73.006;2022-09-12T01:34:00;18.60;99.90
42867;DHT22;39461;40.948;73.006;2022-09-12T01:48:28;18.80;99.90
42867;DHT22;39461;40.948;73.006;2022-09-12T01:51:20;18.70;99.90
42867;DHT22;39461;40.948;73.006;2022-09-12T01:54:01;18.70;99.90
42867;DHT22;39461;40.948;73.006;2022-09-12T01:57:03;18.70;99.90
42867;DHT22;39461;40.948;73.006;2022-09-12T01:59:47;18.80;99.90
42867;DHT22;39461;40.948;73.006;2022-09-12T02:02:33;18.80;99.90
42867;DHT22;39461;40.948;73.006;2022-09-12T02:05:15;18.70;99.90
42867;DHT22;39461;40.948;73.006;2022-09-12T02:07:55;18.80;99.90
42867;DHT22;39461;40.948;73.006;2022-09-12T02:10:53;19.00;99.90
42867;DHT22;39461;40.948;73.006;2022-09-12T02:13:53;18.90;99.90
42867;DHT22;39461;40.948;73.006;2022-09-12T02:17:11;18.90;99.90
42867;DHT22;39461;40.948;73.006;2022-09-12T02:19:54;19.00;99.90
42867;DHT22;39461;40.948;73.006;2022-09-12T02:22:29;19.00;99.90
42867;DHT22;39461;40.948;73.006;2022-09-12T02:25:00;19.00;99.90
42867;DHT22;39461;40.948;73.006;2022-09-12T02:28:35;18.90;99.90
42867;DHT22;39461;40.948;73.006;2022-09-12T02:31:00;18.90;99.90
42867;DHT22;39461;40.948;73.006;2022-09-12T02:36:45;19.00;99.90
42867;DHT22;39461;40.948;73.006;2022-09-12T02:39:21;19.10;99.90
42867;DHT22;39461;40.948;73.006;2022-09-12T02:41:55;19.10;99.90
42867;DHT22;39461;40.948;73.006;2022-09-12T02:44:33;19.20;99.90
42867;DHT22;39461;40.948;73.006;2022-09-12T02:47:21;19.30;99.90
42867;DHT22;39461;40.948;73.006;2022-09-12T02:49:57;19.40;99.90
42867;DHT22;39461;40.948;73.006;2022-09-12T02:52:34;19.40;99.90
42867;DHT22;39461;40.948;73.006;2022-09-12T02:55:08;19.50;99.90
42867;DHT22;39461;40.948;73.006;2022-09-12T02:57:42;19.60;99.90
42867;DHT22;39461;40.948;73.006;2022-09-12T03:00:15;19.70;99.90
42867;DHT22;39461;40.948;73.006;2022-09-12T03:05:59;19.60;99.90
42867;DHT22;39461;40.948;73.006;2022-09-12T03:09:03;19.70;99.90
42867;DHT22;39461;40.948;73.006;2022-09-12T03:12:01;19.70;99.90
42867;DHT22;39461;40.948;73.006;2022-09-12T03:15:05;19.70;98.60
42867;DHT22;39461;40.948;73.006;2022-09-12T03:17:54;19.70;97.10
42867;DHT22;39461;40.948;73.006;2022-09-12T03:21:05;19.80;96.10
42867;DHT22;39461;40.948;73.006;2022-09-12T03:26:34;19.90;93.80
42867;DHT22;39461;40.948;73.006;2022-09-12T03:29:09;19.90;92.30
42867;DHT22;39461;40.948;73.006;2022-09-12T03:31:52;19.90;90.80
42867;DHT22;39461;40.948;73.006;2022-09-12T03:34:26;19.80;89.20
42867;DHT22;39461;40.948;73.006;2022-09-12T03:36:59;19.80;88.10
42867;DHT22;39461;40.948;73.006;2022-09-12T03:39:32;19.80;86.20
42867;DHT22;39461;40.948;73.006;2022-09-12T03:42:05;19.80;90.60
42867;DHT22;39461;40.948;73.006;2022-09-12T03:44:38;19.90;88.70
42867;DHT22;39461;40.948;73.006;2022-09-12T03:47:11;20.00;87.20
42867;DHT22;39461;40.948;73.006;2022-09-12T03:49:50;20.00;85.80
42867;DHT22;39461;40.948;73.006;2022-09-12T03:52:25;20.00;86.30
42867;DHT22;39461;40.948;73.006;2022-09-12T03:54:58;20.10;86.20
42867;DHT22;39461;40.948;73.006;2022-09-12T03:57:33;20.10;85.80
42867;DHT22;39461;40.948;73.006;2022-09-12T04:00:08;20.20;83.40
42867;DHT22;39461;40.948;73.006;2022-09-12T04:02:41;20.30;82.50
42867;DHT22;39461;40.948;73.006;2022-09-12T04:05:16;20.30;82.90
42867;DHT22;39461;40.948;73.006;2022-09-12T04:07:49;20.50;83.80
42867;DHT22;39461;40.948;73.006;2022-09-12T04:10:22;20.60;82.00
42867;DHT22;39461;40.948;73.006;2022-09-12T04:12:57;20.60;81.50
42867;DHT22;39461;40.948;73.006;2022-09-12T04:15:30;20.70;83.70
42867;DHT22;39461;40.948;73.006;2022-09-12T04:18:12;20.70;80.50
42867;DHT22;39461;40.948;73.006;2022-09-12T04:20:45;20.70;80.00
42867;DHT22;39461;40.948;73.006;2022-09-12T04:23:18;20.70;81.00
42867;DHT22;39461;40.948;73.006;2022-09-12T04:25:56;20.80;78.60
42867;DHT22;39461;40.948;73.006;2022-09-12T04:28:26;20.70;77.80
42867;DHT22;39461;40.948;73.006;2022-09-12T04:31:11;20.70;80.00
42867;DHT22;39461;40.948;73.006;2022-09-12T04:33:47;20.70;79.60
42867;DHT22;39461;40.948;73.006;2022-09-12T04:36:27;20.80;78.70
42867;DHT22;39461;40.948;73.006;2022-09-12T04:39:06;20.70;79.90
42867;DHT22;39461;40.948;73.006;2022-09-12T04:41:41;20.60;81.40
42867;DHT22;39461;40.948;73.006;2022-09-12T04:44:12;20.70;81.50
42867;DHT22;39461;40.948;73.006;2022-09-12T04:47:11;20.70;82.80
42867;DHT22;39461;40.948;73.006;2022-09-12T04:49:44;20.50;85.80
42867;DHT22;39461;40.948;73.006;2022-09-12T04:52:24;20.60;85.70
42867;DHT22;39461;40.948;73.006;2022-09-12T04:54:59;20.60;83.60
42867;DHT22;39461;40.948;73.006;2022-09-12T04:57:32;20.60;83.80
42867;DHT22;39461;40.948;73.006;2022-09-12T05:00:09;20.50;82.50
42867;DHT22;39461;40.948;73.006;2022-09-12T05:02:44;20.50;86.00
42867;DHT22;39461;40.948;73.006;2022-09-12T05:05:19;20.60;86.80
42867;DHT22;39461;40.948;73.006;2022-09-12T05:07:55;20.40;86.10
42867;DHT22;39461;40.948;73.006;2022-09-12T05:10:25;20.50;87.30
42867;DHT22;39461;40.948;73.006;2022-09-12T05:13:00;20.70;86.50
42867;DHT22;39461;40.948;73.006;2022-09-12T05:15:34;20.70;87.50
42867;DHT22;39461;40.948;73.006;2022-09-12T05:18:09;20.90;87.20
42867;DHT22;39461;40.948;73.006;2022-09-12T05:20:38;21.00;87.30
42867;DHT22;39461;40.948;73.006;2022-09-12T05:23:13;21.10;87.10
42867;DHT22;39461;40.948;73.006;2022-09-12T05:25:53;21.30;86.30
42867;DHT22;39461;40.948;73.006;2022-09-12T05:28:36;21.30;86.60
42867;DHT22;39461;40.948;73.006;2022-09-12T05:31:15;21.50;87.80
42867;DHT22;39461;40.948;73.006;2022-09-12T05:33:49;21.60;85.50
42867;DHT22;39461;40.948;73.006;2022-09-12T05:36:27;21.80;84.20
42867;DHT22;39461;40.948;73.006;2022-09-12T05:39:05;22.00;82.70
42867;DHT22;39461;40.948;73.006;2022-09-12T05:41:38;22.10;81.80
42867;DHT22;39461;40.948;73.006;2022-09-12T05:44:13;22.40;80.30
42867;DHT22;39461;40.948;73.006;2022-09-12T05:46:48;22.30;79.30
42867;DHT22;39461;40.948;73.006;2022-09-12T05:49:28;22.50;79.60
42867;DHT22;39461;40.948;73.006;2022-09-12T05:52:01;22.80;77.80
42867;DHT22;39461;40.948;73.006;2022-09-12T05:54:34;23.00;74.90
42867;DHT22;39461;40.948;73.006;2022-09-12T05:57:07;23.20;74.40
42867;DHT22;39461;40.948;73.006;2022-09-12T05:59:42;22.90;74.50
42867;DHT22;39461;40.948;73.006;2022-09-12T06:02:10;22.90;73.50
42867;DHT22;39461;40.948;73.006;2022-09-12T06:04:46;22.90;74.00
42867;DHT22;39461;40.948;73.006;2022-09-12T06:07:21;22.90;72.80
42867;DHT22;39461;40.948;73.006;2022-09-12T06:09:54;23.00;73.70
42867;DHT22;39461;40.948;73.006;2022-09-12T06:12:29;23.20;72.90
42867;DHT22;39461;40.948;73.006;2022-09-12T06:15:02;23.30;72.40
42867;DHT22;39461;40.948;73.006;2022-09-12T06:17:35;23.30;71.80
42867;DHT22;39461;40.948;73.006;2022-09-12T06:20:13;23.30;71.90
42867;DHT22;39461;40.948;73.006;2022-09-12T06:22:46;23.30;73.00
42867;DHT22;39461;40.948;73.006;2022-09-12T06:25:19;23.40;72.20
42867;DHT22;39461;40.948;73.006;2022-09-12T06:27:49;23.80;74.20
42867;DHT22;39461;40.948;73.006;2022-09-12T06:30:18;24.10;72.00
42867;DHT22;39461;40.948;73.006;2022-09-12T06:32:51;24.00;70.80
42867;DHT22;39461;40.948;73.006;2022-09-12T06:35:24;24.10;72.30
42867;DHT22;39461;40.948;73.006;2022-09-12T06:37:57;24.20;71.00
42867;DHT22;39461;40.948;73.006;2022-09-12T06:40:31;24.30;72.50
42867;DHT22;39461;40.948;73.006;2022-09-12T06:43:04;24.50;71.50
42867;DHT22;39461;40.948;73.006;2022-09-12T06:45:37;24.70;71.00
42867;DHT22;39461;40.948;73.006;2022-09-12T06:48:10;24.50;69.20
42867;DHT22;39461;40.948;73.006;2022-09-12T06:50:43;24.50;70.60
42867;DHT22;39461;40.948;73.006;2022-09-12T06:53:27;24.80;71.60
42867;DHT22;39461;40.948;73.006;2022-09-12T06:56:07;25.00;70.20
42867;DHT22;39461;40.948;73.006;2022-09-12T06:58:43;25.20;70.10
42867;DHT22;39461;40.948;73.006;2022-09-12T07:01:19;25.30;70.30
42867;DHT22;39461;40.948;73.006;2022-09-12T07:03:58;25.40;69.70
42867;DHT22;39461;40.948;73.006;2022-09-12T07:06:27;25.50;69.30
42867;DHT22;39461;40.948;73.006;2022-09-12T07:09:03;25.50;69.60
42867;DHT22;39461;40.948;73.006;2022-09-12T07:11:41;25.50;69.40
42867;DHT22;39461;40.948;73.006;2022-09-12T07:14:15;25.40;69.80
42867;DHT22;39461;40.948;73.006;2022-09-12T07:16:48;25.50;69.20
42867;DHT22;39461;40.948;73.006;2022-09-12T07:19:21;25.50;69.90
42867;DHT22;39461;40.948;73.006;2022-09-12T07:21:54;25.60;70.80
42867;DHT22;39461;40.948;73.006;2022-09-12T07:24:29;25.60;70.00
42867;DHT22;39461;40.948;73.006;2022-09-12T07:27:04;25.60;70.80
42867;DHT22;39461;40.948;73.006;2022-09-12T07:29:37;25.60;72.50
42867;DHT22;39461;40.948;73.006;2022-09-12T07:32:14;25.80;71.20
42867;DHT22;39461;40.948;73.006;2022-09-12T07:34:47;25.90;69.50
42867;DHT22;39461;40.948;73.006;2022-09-12T07:37:21;25.80;70.60
42867;DHT22;39461;40.948;73.006;2022-09-12T07:39:50;25.80;71.00
42867;DHT22;39461;40.948;73.006;2022-09-12T07:42:25;25.70;70.40
42867;DHT22;39461;40.948;73.006;2022-09-12T07:45:00;25.60;70.80
42867;DHT22;39461;40.948;73.006;2022-09-12T07:47:35;25.60;70.40
42867;DHT22;39461;40.948;73.006;2022-09-12T07:50:10;25.60;70.20
42867;DHT22;39461;40.948;73.006;2022-09-12T07:52:43;25.60;71.40
42867;DHT22;39461;40.948;73.006;2022-09-12T07:55:16;25.50;71.20
42867;DHT22;39461;40.948;73.006;2022-09-12T07:57:50;25.50;70.40
42867;DHT22;39461;40.948;73.006;2022-09-12T08:00:23;25.60;71.80
42867;DHT22;39461;40.948;73.006;2022-09-12T08:02:58;25.60;71.80
42867;DHT22;39461;40.948;73.006;2022-09-12T08:05:33;25.80;72.30
42867;DHT22;39461;40.948;73.006;2022-09-12T08:08:06;25.80;71.60
42867;DHT22;39461;40.948;73.006;2022-09-12T08:10:43;25.60;71.10
42867;DHT22;39461;40.948;73.006;2022-09-12T08:13:44;25.50;73.10
42867;DHT22;39461;40.948;73.006;2022-09-12T08:16:19;25.50;73.50
42867;DHT22;39461;40.948;73.006;2022-09-12T08:18:53;25.60;72.60
42867;DHT22;39461;40.948;73.006;2022-09-12T08:21:31;25.60;72.80
42867;DHT22;39461;40.948;73.006;2022-09-12T08:24:06;25.50;73.60
42867;DHT22;39461;40.948;73.006;2022-09-12T08:26:34;25.40;74.00
42867;DHT22;39461;40.948;73.006;2022-09-12T08:29:06;25.40;73.80
42867;DHT22;39461;40.948;73.006;2022-09-12T08:31:35;25.40;74.70
42867;DHT22;39461;40.948;73.006;2022-09-12T08:34:04;25.30;74.00
42867;DHT22;39461;40.948;73.006;2022-09-12T08:36:39;25.30;74.90
42867;DHT22;39461;40.948;73.006;2022-09-12T08:39:12;25.30;75.00
42867;DHT22;39461;40.948;73.006;2022-09-12T08:42:09;25.20;75.40
42867;DHT22;39461;40.948;73.006;2022-09-12T08:47:35;25.10;76.10
42867;DHT22;39461;40.948;73.006;2022-09-12T08:53:09;24.90;75.40
42867;DHT22;39461;40.948;73.006;2022-09-12T08:58:20;24.70;76.40
42867;DHT22;39461;40.948;73.006;2022-09-12T09:01:31;24.60;76.10
42867;DHT22;39461;40.948;73.006;2022-09-12T09:07:27;24.50;75.90
42867;DHT22;39461;40.948;73.006;2022-09-12T09:10:27;24.40;76.00
42867;DHT22;39461;40.948;73.006;2022-09-12T09:13:37;24.30;76.30
42867;DHT22;39461;40.948;73.006;2022-09-12T09:16:39;24.30;77.30
42867;DHT22;39461;40.948;73.006;2022-09-12T09:19:22;24.10;78.00
42867;DHT22;39461;40.948;73.006;2022-09-12T09:22:03;24.10;78.50
42867;DHT22;39461;40.948;73.006;2022-09-12T09:25:09;24.10;78.50
42867;DHT22;39461;40.948;73.006;2022-09-12T09:27:52;24.10;78.70
42867;DHT22;39461;40.948;73.006;2022-09-12T09:30:22;24.00;80.10
42867;DHT22;39461;40.948;73.006;2022-09-12T09:32:59;23.90;80.10
42867;DHT22;39461;40.948;73.006;2022-09-12T09:35:44;23.90;79.80
42867;DHT22;39461;40.948;73.006;2022-09-12T09:38:41;23.80;81.00
42867;DHT22;39461;40.948;73.006;2022-09-12T09:44:01;23.50;82.60
42867;DHT22;39461;40.948;73.006;2022-09-12T09:46:31;23.50;83.10
42867;DHT22;39461;40.948;73.006;2022-09-12T09:49:00;23.30;82.90
42867;DHT22;39461;40.948;73.006;2022-09-12T09:51:40;23.30;82.70
42867;DHT22;39461;40.948;73.006;2022-09-12T09:54:23;23.10;82.80
42867;DHT22;39461;40.948;73.006;2022-09-12T09:56:57;23.00;84.10
42867;DHT22;39461;40.948;73.006;2022-09-12T09:59:32;23.00;84.30
42867;DHT22;39461;40.948;73.006;2022-09-12T10:04:56;22.90;83.50
42867;DHT22;39461;40.948;73.006;2022-09-12T10:07:30;22.70;83.40
42867;DHT22;39461;40.948;73.006;2022-09-12T10:12:43;22.50;84.90
42867;DHT22;39461;40.948;73.006;2022-09-12T10:15:22;22.50;86.20
42867;DHT22;39461;40.948;73.006;2022-09-12T10:17:56;22.40;87.30
42867;DHT22;39461;40.948;73.006;2022-09-12T10:20:33;22.40;89.20
42867;DHT22;39461;40.948;73.006;2022-09-12T10:25:53;22.20;90.70
42867;DHT22;39461;40.948;73.006;2022-09-12T10:28:29;22.20;91.00
42867;DHT22;39461;40.948;73.006;2022-09-12T10:31:03;22.10;91.60
42867;DHT22;39461;40.948;73.006;2022-09-12T10:33:47;22.10;91.90
42867;DHT22;39461;40.948;73.006;2022-09-12T10:36:51;22.00;92.30
42867;DHT22;39461;40.948;73.006;2022-09-12T10:39:26;22.00;94.40
42867;DHT22;39461;40.948;73.006;2022-09-12T10:42:02;21.90;97.20
42867;DHT22;39461;40.948;73.006;2022-09-12T10:45:00;21.90;99.90
42867;DHT22;39461;40.948;73.006;2022-09-12T10:47:31;21.70;99.90
42867;DHT22;39461;40.948;73.006;2022-09-12T10:50:39;21.60;99.90
42867;DHT22;39461;40.948;73.006;2022-09-12T10:56:09;21.50;99.90
42867;DHT22;39461;40.948;73.006;2022-09-12T11:02:14;21.20;99.90
42867;DHT22;39461;40.948;73.006;2022-09-12T11:07:54;21.00;99.90
42867;DHT22;39461;40.948;73.006;2022-09-12T11:22:28;20.70;99.90
42867;DHT22;39461;40.948;73.006;2022-09-12T11:31:36;20.50;99.90
42867;DHT22;39461;40.948;73.006;2022-09-12T11:33:51;20.20;99.90
42867;DHT22;39461;40.948;73.006;2022-09-12T11:39:38;20.10;99.90
42867;DHT22;39461;40.948;73.006;2022-09-12T11:42:29;20.00;99.90
42867;DHT22;39461;40.948;73.006;2022-09-12T11:45:14;20.00;99.90
42867;DHT22;39461;40.948;73.006;2022-09-12T11:47:54;20.00;99.90
42867;DHT22;39461;40.948;73.006;2022-09-12T11:50:30;19.90;99.90
42867;DHT22;39461;40.948;73.006;2022-09-12T11:53:22;19.90;99.90
42867;DHT22;39461;40.948;73.006;2022-09-12T11:58:42;19.90;99.90
42867;DHT22;39461;40.948;73.006;2022-09-12T12:01:19;19.80;99.90
42867;DHT22;39461;40.948;73.006;2022-09-12T12:03:48;19.80;99.90
42867;DHT22;39461;40.948;73.006;2022-09-12T12:06:59;19.70;99.90
42867;DHT22;39461;40.948;73.006;2022-09-12T12:09:49;19.60;99.90
42867;DHT22;39461;40.948;73.006;2022-09-12T12:12:24;19.50;99.90
42867;DHT22;39461;40.948;73.006;2022-09-12T12:14:59;19.40;99.90
42867;DHT22;39461;40.948;73.006;2022-09-12T12:17:33;19.40;99.90
42867;DHT22;39461;40.948;73.006;2022-09-12T12:20:04;19.30;99.90
42867;DHT22;39461;40.948;73.006;2022-09-12T12:22:33;19.20;99.90
42867;DHT22;39461;40.948;73.006;2022-09-12T12:27:56;19.10;99.90
42867;DHT22;39461;40.948;73.006;2022-09-12T12:30:57;19.00;99.90
42867;DHT22;39461;40.948;73.006;2022-09-12T12:36:09;18.80;99.90
42867;DHT22;39461;40.948;73.006;2022-09-12T12:38:42;18.50;99.90
42867;DHT22;39461;40.948;73.006;2022-09-12T12:43:53;18.10;99.90
42867;DHT22;39461;40.948;73.006;2022-09-12T12:46:28;18.00;99.90
42867;DHT22;39461;40.948;73.006;2022-09-12T12:57:18;17.70;99.90
42867;DHT22;39461;40.948;73.006;2022-09-12T13:00:04;17.50;99.90
42867;DHT22;39461;40.948;73.006;2022-09-12T13:02:49;17.50;99.90
42867;DHT22;39461;40.948;73.006;2022-09-12T13:05:24;17.40;99.90
42867;DHT22;39461;40.948;73.006;2022-09-12T13:08:06;17.20;99.90
42867;DHT22;39461;40.948;73.006;2022-09-12T13:10:37;17.20;99.90
42867;DHT22;39461;40.948;73.006;2022-09-12T13:13:41;16.90;99.90
42867;DHT22;39461;40.948;73.006;2022-09-12T13:16:09;17.10;99.90
42867;DHT22;39461;40.948;73.006;2022-09-12T13:18:47;17.20;99.90
42867;DHT22;39461;40.948;73.006;2022-09-12T13:21:20;17.30;99.90
42867;DHT22;39461;40.948;73.006;2022-09-12T13:24:13;17.40;99.90
42867;DHT22;39461;40.948;73.006;2022-09-12T13:26:47;17.10;99.90
42867;DHT22;39461;40.948;73.006;2022-09-12T13:29:18;17.20;99.90
42867;DHT22;39461;40.948;73.006;2022-09-12T13:31:59;17.30;99.90
42867;DHT22;39461;40.948;73.006;2022-09-12T13:34:44;17.40;99.90
42867;DHT22;39461;40.948;73.006;2022-09-12T13:43:13;17.50;99.90
42867;DHT22;39461;40.948;73.006;2022-09-12T13:45:45;17.50;99.90
42867;DHT22;39461;40.948;73.006;2022-09-12T13:48:22;17.60;99.90
42867;DHT22;39461;40.948;73.006;2022-09-12T13:50:56;17.40;99.90
42867;DHT22;39461;40.948;73.006;2022-09-12T13:53:42;17.30;99.90
42867;DHT22;39461;40.948;73.006;2022-09-12T13:56:19;17.40;99.90
42867;DHT22;39461;40.948;73.006;2022-09-12T13:58:59;17.20;99.90
42867;DHT22;39461;40.948;73.006;2022-09-12T14:01:39;17.10;99.90
42867;DHT22;39461;40.948;73.006;2022-09-12T14:07:19;16.80;99.90
42867;DHT22;39461;40.948;73.006;2022-09-12T14:09:59;16.90;99.90
42867;DHT22;39461;40.948;73.006;2022-09-12T14:12:39;17.00;99.90
42867;DHT22;39461;40.948;73.006;2022-09-12T14:15:20;17.20;99.90
42867;DHT22;39461;40.948;73.006;2022-09-12T14:18:04;17.20;99.90
42867;DHT22;39461;40.948;73.006;2022-09-12T14:20:42;17.30;99.90
42867;DHT22;39461;40.948;73.006;2022-09-12T14:25:55;17.50;99.90
42867;DHT22;39461;40.948;73.006;2022-09-12T14:28:24;17.50;99.90
42867;DHT22;39461;40.948;73.006;2022-09-12T14:31:30;17.70;99.90
42867;DHT22;39461;40.948;73.006;2022-09-12T14:34:17;17.50;99.90
42867;DHT22;39461;40.948;73.006;2022-09-12T14:36:54;17.30;99.90
42867;DHT22;39461;40.948;73.006;2022-09-12T14:39:36;17.30;99.90
42867;DHT22;39461;40.948;73.006;2022-09-12T14:42:17;17.30;99.90
42867;DHT22;39461;40.948;73.006;2022-09-12T14:45:08;17.50;99.90
42867;DHT22;39461;40.948;73.006;2022-09-12T14:47:48;17.50;99.90
42867;DHT22;39461;40.948;73.006;2022-09-12T14:50:25;17.60;99.90
42867;DHT22;39461;40.948;73.006;2022-09-12T14:53:03;17.60;99.90
42867;DHT22;39461;40.948;73.006;2022-09-12T14:55:49;17.70;99.90
42867;DHT22;39461;40.948;73.006;2022-09-12T14:58:27;17.90;99.90
42867;DHT22;39461;40.948;73.006;2022-09-12T15:01:01;17.90;99.90
42867;DHT22;39461;40.948;73.006;2022-09-12T15:03:37;17.90;99.90
42867;DHT22;39461;40.948;73.006;2022-09-12T15:06:29;17.90;99.90
42867;DHT22;39461;40.948;73.006;2022-09-12T15:09:14;17.80;99.90
42867;DHT22;39461;40.948;73.006;2022-09-12T15:11:49;17.80;99.90
42867;DHT22;39461;40.948;73.006;2022-09-12T15:14:24;17.70;99.90
42867;DHT22;39461;40.948;73.006;2022-09-12T15:16:59;17.70;99.90
42867;DHT22;39461;40.948;73.006;2022-09-12T15:19:34;17.80;99.90
42867;DHT22;39461;40.948;73.006;2022-09-12T15:22:11;17.90;99.90
42867;DHT22;39461;40.948;73.006;2022-09-12T15:24:44;17.80;99.90
42867;DHT22;39461;40.948;73.006;2022-09-12T15:27:17;17.80;99.90
42867;DHT22;39461;40.948;73.006;2022-09-12T15:29:58;17.80;99.90
42867;DHT22;39461;40.948;73.006;2022-09-12T15:32:36;17.80;99.90
42867;DHT22;39461;40.948;73.006;2022-09-12T15:35:16;17.80;99.90
42867;DHT22;39461;40.948;73.006;2022-09-12T15:37:45;17.90;99.90
42867;DHT22;39461;40.948;73.006;2022-09-12T15:40:19;18.00;99.90
42867;DHT22;39461;40.948;73.006;2022-09-12T15:42:54;17.90;99.90
42867;DHT22;39461;40.948;73.006;2022-09-12T15:45:26;18.00;99.90
42867;DHT22;39461;40.948;73.006;2022-09-12T15:48:02;18.00;99.90
42867;DHT22;39461;40.948;73.006;2022-09-12T15:50:29;17.90;99.90
42867;DHT22;39461;40.948;73.006;2022-09-12T15:53:27;18.00;99.90
42867;DHT22;39461;40.948;73.006;2022-09-12T15:56:00;18.00;99.90
42867;DHT22;39461;40.948;73.006;2022-09-12T15:58:33;18.10;99.90
42867;DHT22;39461;40.948;73.006;2022-09-12T16:01:00;18.20;99.90
42867;DHT22;39461;40.948;73.006;2022-09-12T16:03:35;18.20;99.90
42867;DHT22;39461;40.948;73.006;2022-09-12T16:06:10;18.10;99.90
42867;DHT22;39461;40.948;73.006;2022-09-12T16:08:45;18.20;99.90
42867;DHT22;39461;40.948;73.006;2022-09-12T16:13:56;18.40;99.90
42867;DHT22;39461;40.948;73.006;2022-09-12T16:16:31;18.40;99.90
42867;DHT22;39461;40.948;73.006;2022-09-12T16:19:06;18.40;99.90
42867;DHT22;39461;40.948;73.006;2022-09-12T16:21:41;18.40;99.90
42867;DHT22;39461;40.948;73.006;2022-09-12T16:24:16;18.40;99.90
42867;DHT22;39461;40.948;73.006;2022-09-12T16:26:42;18.50;99.90
42867;DHT22;39461;40.948;73.006;2022-09-12T16:29:12;18.30;99.90
42867;DHT22;39461;40.948;73.006;2022-09-12T16:31:39;18.30;99.90
42867;DHT22;39461;40.948;73.006;2022-09-12T16:34:14;18.30;99.90
42867;DHT22;39461;40.948;73.006;2022-09-12T16:37:12;18.30;99.90
42867;DHT22;39461;40.948;73.006;2022-09-12T16:39:47;18.40;99.90
42867;DHT22;39461;40.948;73.006;2022-09-12T16:42:22;18.40;99.90
42867;DHT22;39461;40.948;73.006;2022-09-12T16:44:57;18.50;99.90
42867;DHT22;39461;40.948;73.006;2022-09-12T16:47:32;18.50;99.90
42867;DHT22;39461;40.948;73.006;2022-09-12T16:50:07;18.50;99.90
42867;DHT22;39461;40.948;73.006;2022-09-12T16:53:05;18.60;99.90
42867;DHT22;39461;40.948;73.006;2022-09-12T16:55:32;18.70;99.90
42867;DHT22;39461;40.948;73.006;2022-09-12T16:58:07;18.60;99.90
42867;DHT22;39461;40.948;73.006;2022-09-12T17:00:42;18.60;99.90
42867;DHT22;39461;40.948;73.006;2022-09-12T17:03:16;18.60;99.90
42867;DHT22;39461;40.948;73.006;2022-09-12T17:06:12;18.60;99.90
42867;DHT22;39461;40.948;73.006;2022-09-12T17:08:49;18.50;99.90
42867;DHT22;39461;40.948;73.006;2022-09-12T17:11:47;18.50;99.90
42867;DHT22;39461;40.948;73.006;2022-09-12T17:14:23;18.50;99.90
42867;DHT22;39461;40.948;73.006;2022-09-12T17:16:59;18.50;99.90
42867;DHT22;39461;40.948;73.006;2022-09-12T17:19:33;18.60;99.90
42867;DHT22;39461;40.948;73.006;2022-09-12T17:22:08;18.60;99.90
42867;DHT22;39461;40.948;73.006;2022-09-12T17:24:43;18.60;99.90
42867;DHT22;39461;40.948;73.006;2022-09-12T17:27:18;18.60;99.90
42867;DHT22;39461;40.948;73.006;2022-09-12T17:29:51;18.60;99.90
42867;DHT22;39461;40.948;73.006;2022-09-12T17:32:20;18.60;99.90
42867;DHT22;39461;40.948;73.006;2022-09-12T17:35:18;18.60;99.90
42867;DHT22;39461;40.948;73.006;2022-09-12T17:37:53;18.60;99.90
42867;DHT22;39461;40.948;73.006;2022-09-12T17:40:28;18.60;99.90
42867;DHT22;39461;40.948;73.006;2022-09-12T17:43:07;18.60;99.90
42867;DHT22;39461;40.948;73.006;2022-09-12T17:45:40;18.60;99.90
42867;DHT22;39461;40.948;73.006;2022-09-12T17:48:14;18.50;99.90
42867;DHT22;39461;40.948;73.006;2022-09-12T17:50:47;18.50;99.90
42867;DHT22;39461;40.948;73.006;2022-09-12T17:53:26;18.50;99.90
42867;DHT22;39461;40.948;73.006;2022-09-12T17:56:06;18.40;99.90
42867;DHT22;39461;40.948;73.006;2022-09-12T17:58:35;18.40;99.90
42867;DHT22;39461;40.948;73.006;2022-09-12T18:01:12;18.40;99.90
42867;DHT22;39461;40.948;73.006;2022-09-12T18:04:06;18.40;99.90
42867;DHT22;39461;40.948;73.006;2022-09-12T18:06:41;18.40;99.90
42867;DHT22;39461;40.948;73.006;2022-09-12T18:09:22;18.40;99.90
42867;DHT22;39461;40.948;73.006;2022-09-12T18:11:58;18.30;99.90
42867;DHT22;39461;40.948;73.006;2022-09-12T18:14:33;18.30;99.90
42867;DHT22;39461;40.948;73.006;2022-09-12T18:17:06;18.30;99.90
42867;DHT22;39461;40.948;73.006;2022-09-12T18:19:39;18.30;99.90
42867;DHT22;39461;40.948;73.006;2022-09-12T18:22:16;18.20;99.90
42867;DHT22;39461;40.948;73.006;2022-09-12T18:24:53;18.10;99.90
42867;DHT22;39461;40.948;73.006;2022-09-12T18:27:19;18.10;99.90